Time;durP1;ratioP1;P1;durP2;ratioP2;P2;SDS_P1;SDS_P2;PMS_P1;PMS_P2;Temp;Humidity;BMP_temperature;BMP_pressure;BME280_temperature;BME280_humidity;BME280_pressure;Samples;Min_cycle;Max_cycle;Signal;HPM_P1;HPM_P2
2023/03/05 00:00:07;;;;;;;22.63;8.75;;;;;;;;;;5046075;28;20036;-80
2023/03/05 00:02:32;;;;;;;20.58;9.05;;;;;;;;;;5041819;28;20025;-77
2023/03/05 00:04:58;;;;;;;27.83;9.48;;;;;;;;;;5043977;28;20036;-77
2023/03/05 00:07:24;;;;;;;36.25;9.15;;;;;;;;;;5043996;28;20040;-78
2023/03/05 00:09:50;;;;;;;30.45;9.85;;;;;;;;;;5037402;28;20041;-80
2023/03/05 00:12:16;;;;;;;28.40;9.10;;;;;;;;;;5043332;28;20029;-77
2023/03/05 00:14:42;;;;;;;34.25;10.93;;;;;;;;;;5042483;28;20025;-77
2023/03/05 00:17:08;;;;;;;31.27;10.57;;;;;;;;;;5042741;28;20025;-80
2023/03/05 00:19:34;;;;;;;22.98;10.23;;;;;;;;;;5044336;28;20108;-78
2023/03/05 00:22:00;;;;;;;24.48;8.45;;;;;;;;;;5037767;28;20029;-80
2023/03/05 00:24:26;;;;;;;17.67;8.13;;;;;;;;;;5044383;28;20513;-77
2023/03/05 00:26:53;;;;;;;28.02;9.40;;;;;;;;;;5044923;28;20248;-81
2023/03/05 00:29:20;;;;;;;23.80;7.03;;;2.50;99.90;;;;;;5043909;28;20029;-80
2023/03/05 00:31:47;;;;;;;38.80;14.73;;;;;;;;;;5036648;28;20162;-81
2023/03/05 00:34:14;;;;;;;36.38;13.32;;;;;;;;;;5043652;28;20051;-79
2023/03/05 00:36:40;;;;;;;43.90;13.68;;;;;;;;;;5039803;28;20397;-78
2023/03/05 00:39:06;;;;;;;40.45;12.88;;;;;;;;;;5037233;28;20116;-78
2023/03/05 00:41:33;;;;;;;28.77;7.82;;;;;;;;;;5036887;28;20020;-81
2023/03/05 00:43:59;;;;;;;33.17;9.40;;;;;;;;;;5043800;28;20037;-79
2023/03/05 00:46:26;;;;;;;28.98;7.72;;;;;;;;;;5047225;28;20031;-79
2023/03/05 00:48:52;;;;;;;28.20;9.35;;;;;;;;;;5044393;28;20037;-80
2023/03/05 00:51:18;;;;;;;24.20;10.27;;;;;;;;;;5040254;28;20350;-80
2023/03/05 00:53:44;;;;;;;45.67;16.73;;;;;;;;;;5037563;28;20025;-81
2023/03/05 00:56:10;;;;;;;33.25;13.80;;;;;;;;;;5049216;28;20033;-81
2023/03/05 00:58:36;;;;;;;35.15;11.60;;;;;;;;;;5044116;28;20493;-82
2023/03/05 01:01:03;;;;;;;27.83;11.07;;;;;;;;;;5035391;28;20378;-77
2023/03/05 01:03:29;;;;;;;26.60;8.68;;;;;;;;;;5039025;28;20048;-83
2023/03/05 01:05:55;;;;;;;18.73;8.85;;;;;;;;;;5044672;28;20025;-79
2023/03/05 01:08:21;;;;;;;33.38;9.15;;;;;;;;;;5054944;28;20036;-80
2023/03/05 01:10:47;;;;;;;33.60;9.68;;;;;;;;;;5044784;28;20033;-78
2023/03/05 01:13:14;;;;;;;28.60;10.27;;;;;;;;;;5048850;28;20029;-78
2023/03/05 01:15:40;;;;;;;30.15;9.02;;;;;;;;;;5040468;28;20635;-78
2023/03/05 01:18:06;;;;;;;26.92;9.38;;;;;;;;;;5037774;28;20030;-81
2023/03/05 01:20:32;;;;;;;31.13;9.95;;;;;;;;;;5044117;28;20029;-77
2023/03/05 01:23:00;;;;;;;30.73;11.07;;;;;;;;;;5050760;28;20036;-81
2023/03/05 01:25:26;;;;;;;21.77;7.47;;;;;;;;;;5040636;28;20107;-79
2023/03/05 01:27:53;;;;;;;26.90;9.18;;;;;;;;;;5043010;28;20411;-80
2023/03/05 01:30:19;;;;;;;25.63;9.20;;;;;;;;;;5038540;28;20021;-78
2023/03/05 01:32:45;;;;;;;29.15;9.13;;;;;;;;;;5038031;28;20021;-79
2023/03/05 01:35:17;;;;;;;21.65;8.13;;;2.30;99.90;;;;;;5042037;28;20108;-78
2023/03/05 01:37:43;;;;;;;32.63;9.07;;;;;;;;;;5045412;28;20036;-81
2023/03/05 01:40:10;;;;;;;26.88;10.10;;;;;;;;;;5045332;28;20037;-77
2023/03/05 01:42:36;;;;;;;32.40;9.13;;;;;;;;;;5051685;28;20035;-80
2023/03/05 01:45:05;;;;;;;21.40;8.93;;;;;;;;;;5045537;28;20043;-79
2023/03/05 01:47:31;;;;;;;27.25;8.48;;;;;;;;;;5021689;28;20578;-80
2023/03/05 01:49:57;;;;;;;22.38;8.98;;;;;;;;;;5051220;28;20056;-80
2023/03/05 01:52:23;;;;;;;33.42;10.32;;;;;;;;;;5062689;28;20036;-82
2023/03/05 01:54:57;;;;;;;26.60;8.90;;;;;;;;;;5055232;28;20031;-80
2023/03/05 01:57:26;;;;;;;24.52;9.98;;;;;;;;;;5068119;28;20028;-78
2023/03/05 01:59:55;;;;;;;44.95;11.32;;;;;;;;;;5061795;28;20047;-78
2023/03/05 02:02:21;;;;;;;23.05;8.07;;;;;;;;;;5061375;28;20650;-77
2023/03/05 02:05:07;;;;;;;34.70;10.20;;;;;;;;;;5056730;28;20752;-80
2023/03/05 02:07:36;;;;;;;27.77;8.90;;;;;;;;;;5064810;28;20041;-83
2023/03/05 02:10:02;;;;;;;28.38;9.60;;;;;;;;;;5060143;28;20032;-80
2023/03/05 02:12:28;;;;;;;30.02;12.40;;;;;;;;;;5054106;28;20513;-85
2023/03/05 02:14:58;;;;;;;26.20;8.32;;;;;;;;;;5058911;28;20025;-81
2023/03/05 02:17:25;;;;;;;19.33;8.82;;;;;;;;;;5063475;28;20036;-79
2023/03/05 02:19:55;;;;;;;41.30;10.98;;;;;;;;;;5055776;28;20170;-78
2023/03/05 02:22:23;;;;;;;31.60;10.48;;;;;;;;;;5066015;28;20373;-83
2023/03/05 02:24:49;;;;;;;30.80;11.07;;;;;;;;;;5062742;28;20024;-80
2023/03/05 02:27:16;;;;;;;24.80;9.10;;;;;;;;;;5057323;28;20024;-78
2023/03/05 02:29:44;;;;;;;29.13;10.32;;;;;;;;;;5065315;28;20032;-83
2023/03/05 02:32:10;;;;;;;20.65;9.40;;;;;;;;;;5062088;28;20031;-82
2023/03/05 02:34:36;;;;;;;24.70;9.70;;;;;;;;;;5056359;28;22538;-82
2023/03/05 02:37:03;;;;;;;38.80;9.13;;;;;;;;;;5057627;28;20115;-80
2023/03/05 02:39:29;;;;;;;30.27;10.05;;;;;;;;;;5062082;28;20056;-80
2023/03/05 02:41:55;;;;;;;29.95;9.70;;;;;;;;;;5067969;28;20419;-80
2023/03/05 02:44:21;;;;;;;23.88;8.45;;;;;;;;;;5057737;28;20052;-82
2023/03/05 02:46:47;;;;;;;32.03;10.90;;;;;;;;;;5065192;28;20098;-80
2023/03/05 02:49:13;;;;;;;27.63;9.77;;;;;;;;;;5059151;28;20040;-79
2023/03/05 02:51:40;;;;;;;27.90;9.90;;;2.10;99.90;;;;;;5062498;28;20035;-80
2023/03/05 02:54:06;;;;;;;28.80;9.73;;;;;;;;;;5057449;28;20063;-80
2023/03/05 02:56:32;;;;;;;24.80;10.95;;;;;;;;;;5061263;28;20481;-83
2023/03/05 02:58:58;;;;;;;26.77;10.02;;;;;;;;;;5060558;28;20572;-82
2023/03/05 03:01:26;;;;;;;24.58;10.23;;;;;;;;;;5057100;28;20078;-79
2023/03/05 03:03:53;;;;;;;23.65;7.72;;;;;;;;;;5060911;28;20028;-79
2023/03/05 03:06:19;;;;;;;22.77;9.77;;;;;;;;;;5063569;28;20566;-81
2023/03/05 03:08:45;;;;;;;27.55;9.65;;;;;;;;;;5064532;28;20044;-84
2023/03/05 03:11:12;;;;;;;28.83;10.80;;;;;;;;;;5060147;28;20024;-82
2023/03/05 03:13:38;;;;;;;24.70;8.65;;;;;;;;;;5062564;28;20032;-80
2023/03/05 03:16:09;;;;;;;21.50;7.18;;;;;;;;;;5060502;28;20028;-79
2023/03/05 03:18:35;;;;;;;27.63;9.95;;;;;;;;;;5058530;28;20043;-81
2023/03/05 03:21:01;;;;;;;21.35;8.57;;;;;;;;;;5056434;28;20028;-80
2023/03/05 03:23:27;;;;;;;19.13;7.72;;;;;;;;;;5053641;28;20038;-80
2023/03/05 03:25:53;;;;;;;28.35;10.07;;;;;;;;;;5063252;28;20123;-78
2023/03/05 03:28:19;;;;;;;28.10;10.43;;;;;;;;;;5061434;28;20041;-83
2023/03/05 03:30:45;;;;;;;26.35;11.02;;;;;;;;;;5058750;28;20391;-82
2023/03/05 03:33:11;;;;;;;26.08;8.68;;;;;;;;;;5061556;28;20037;-79
2023/03/05 03:35:37;;;;;;;21.65;7.70;;;;;;;;;;5057141;28;20110;-80
2023/03/05 03:38:03;;;;;;;18.15;8.90;;;;;;;;;;5055145;28;20033;-82
2023/03/05 03:40:29;;;;;;;34.25;10.55;;;;;;;;;;5059941;28;20369;-79
2023/03/05 03:42:55;;;;;;;22.52;7.80;;;;;;;;;;5071801;28;20040;-79
2023/03/05 03:45:21;;;;;;;35.35;9.60;;;;;;;;;;5068872;28;20035;-79
2023/03/05 03:47:48;;;;;;;20.67;8.15;;;;;;;;;;5069344;28;20049;-79
2023/03/05 03:50:14;;;;;;;22.60;8.98;;;;;;;;;;5061458;28;20111;-77
2023/03/05 03:52:40;;;;;;;27.83;7.88;;;;;;;;;;5062244;28;20075;-80
2023/03/05 03:55:06;;;;;;;24.70;9.77;;;2.60;99.90;;;;;;5072472;28;20012;-78
2023/03/05 03:57:32;;;;;;;23.35;8.05;;;;;;;;;;5058152;28;20092;-81
2023/03/05 03:59:58;;;;;;;26.17;8.43;;;;;;;;;;5060923;28;20103;-78
2023/03/05 04:02:25;;;;;;;31.40;8.45;;;;;;;;;;5067616;28;20104;-80
2023/03/05 04:04:51;;;;;;;32.10;8.77;;;3.60;99.90;;;;;;5055004;28;20551;-81
2023/03/05 04:07:17;;;;;;;27.02;9.60;;;;;;;;;;5069361;28;20078;-79
2023/03/05 04:09:43;;;;;;;25.98;9.02;;;;;;;;;;5064502;28;20025;-80
2023/03/05 04:12:09;;;;;;;28.25;10.30;;;;;;;;;;5063967;28;20079;-82
2023/03/05 04:14:35;;;;;;;29.38;9.82;;;;;;;;;;5070552;28;20037;-80
2023/03/05 04:17:01;;;;;;;29.45;9.82;;;;;;;;;;5067086;28;20407;-77
2023/03/05 04:19:29;;;;;;;22.95;8.68;;;;;;;;;;5073285;28;20510;-80
2023/03/05 04:21:55;;;;;;;23.38;8.95;;;;;;;;;;5060772;28;20039;-80
2023/03/05 04:24:21;;;;;;;20.77;7.72;;;;;;;;;;5061275;28;20509;-81
2023/03/05 04:26:47;;;;;;;18.02;8.07;;;;;;;;;;5065567;28;20029;-82
2023/03/05 04:29:13;;;;;;;21.50;8.60;;;;;;;;;;5047299;28;20149;-80
2023/03/05 04:31:39;;;;;;;21.85;8.20;;;;;;;;;;5062261;28;20535;-80
2023/03/05 04:34:05;;;;;;;21.60;8.00;;;;;;;;;;5066090;28;20394;-80
2023/03/05 04:36:31;;;;;;;22.73;8.13;;;;;;;;;;5065634;28;20092;-78
2023/03/05 04:38:57;;;;;;;23.67;8.73;;;;;;;;;;5063690;28;20048;-80
2023/03/05 04:41:22;;;;;;;18.25;9.57;;;;;;;;;;5059840;28;20029;-80
2023/03/05 04:43:48;;;;;;;27.42;8.38;;;;;;;;;;5057530;28;20150;-79
2023/03/05 04:46:14;;;;;;;22.90;9.20;;;;;;;;;;5063783;28;20032;-80
2023/03/05 04:48:40;;;;;;;24.50;8.50;;;;;;;;;;5066559;28;20040;-81
2023/03/05 04:51:06;;;;;;;23.98;9.20;;;;;;;;;;5062602;28;20016;-80
2023/03/05 04:53:32;;;;;;;27.77;9.18;;;;;;;;;;5061909;28;20615;-78
2023/03/05 04:56:00;;;;;;;18.58;8.82;;;;;;;;;;5057923;28;20121;-78
2023/03/05 04:58:26;;;;;;;26.25;7.40;;;;;;;;;;5065087;28;20036;-78
2023/03/05 05:00:52;;;;;;;21.33;7.07;;;;;;;;;;5071893;28;20032;-79
2023/03/05 05:03:18;;;;;;;24.75;9.38;;;;;;;;;;5063043;28;20024;-81
2023/03/05 05:05:44;;;;;;;26.25;7.90;;;;;;;;;;5050239;28;20024;-81
2023/03/05 05:08:10;;;;;;;32.92;9.18;;;;;;;;;;5061972;28;20040;-79
2023/03/05 05:10:40;;;;;;;20.13;8.18;;;;;;;;;;5069189;28;20027;-80
2023/03/05 05:13:06;;;;;;;26.98;8.10;;;;;;;;;;5059309;28;20094;-79
2023/03/05 05:15:32;;;;;;;29.63;8.70;;;;;;;;;;5065021;28;20028;-82
2023/03/05 05:17:58;;;;;;;24.63;9.38;;;;;;;;;;5057021;28;21193;-78
2023/03/05 05:20:24;;;;;;;20.73;8.77;;;;;;;;;;5061900;28;20032;-82
2023/03/05 05:22:50;;;;;;;26.48;9.85;;;;;;;;;;5064946;28;20032;-78
2023/03/05 05:25:16;;;;;;;25.58;7.53;;;;;;;;;;5065917;28;20058;-77
2023/03/05 05:27:42;;;;;;;30.80;10.93;;;;;;;;;;5061620;28;20053;-80
2023/03/05 05:30:08;;;;;;;22.00;8.05;;;;;;;;;;5064069;28;20029;-77
2023/03/05 05:32:34;;;;;;;16.75;6.53;;;;;;;;;;5066501;28;20029;-78
2023/03/05 05:35:00;;;;;;;21.60;7.93;;;;;;;;;;5056138;28;20029;-79
2023/03/05 05:37:26;;;;;;;25.95;8.85;;;;;;;;;;5065859;28;20032;-79
2023/03/05 05:39:53;;;;;;;26.40;7.25;;;;;;;;;;5063896;28;20492;-81
2023/03/05 05:42:20;;;;;;;23.95;9.45;;;;;;;;;;5065613;28;20032;-77
2023/03/05 05:44:46;;;;;;;26.10;8.18;;;;;;;;;;5062969;28;20033;-82
2023/03/05 05:47:13;;;;;;;37.38;8.68;;;2.10;99.90;;;;;;5057748;28;20020;-76
2023/03/05 05:49:39;;;;;;;36.22;8.32;;;;;;;;;;5065536;28;20037;-80
2023/03/05 05:52:05;;;;;;;28.17;10.75;;;;;;;;;;5065197;28;20024;-81
2023/03/05 05:54:31;;;;;;;27.70;8.88;;;;;;;;;;5067129;28;20103;-79
2023/03/05 05:56:57;;;;;;;21.00;7.30;;;;;;;;;;5060994;28;20099;-84
2023/03/05 05:59:23;;;;;;;24.90;6.88;;;;;;;;;;5047091;28;20507;-82
2023/03/05 06:01:49;;;;;;;18.10;7.43;;;;;;;;;;5069159;28;20024;-79
2023/03/05 06:04:15;;;;;;;28.20;7.85;;;;;;;;;;5061857;28;20033;-80
2023/03/05 06:06:41;;;;;;;21.02;6.75;;;;;;;;;;5064836;28;20086;-77
2023/03/05 06:09:07;;;;;;;26.05;8.35;;;;;;;;;;5066802;28;20032;-80
2023/03/05 06:11:33;;;;;;;21.40;8.10;;;;;;;;;;5066397;28;20033;-77
2023/03/05 06:14:01;;;;;;;25.05;8.68;;;;;;;;;;5059563;28;20424;-79
2023/03/05 06:16:28;;;;;;;19.30;7.72;;;;;;;;;;5067842;28;20036;-81
2023/03/05 06:18:54;;;;;;;20.92;8.57;;;;;;;;;;5063538;28;20040;-78
2023/03/05 06:21:21;;;;;;;25.05;9.57;;;;;;;;;;5069544;28;20027;-78
2023/03/05 06:23:47;;;;;;;32.92;10.18;;;;;;;;;;5071422;28;20035;-79
2023/03/05 06:26:15;;;;;;;23.02;8.73;;;;;;;;;;5068988;28;20400;-77
2023/03/05 06:28:41;;;;;;;47.08;12.98;;;;;;;;;;5065910;28;20040;-79
2023/03/05 06:31:15;;;;;;;34.00;12.60;;;;;;;;;;5062937;28;20201;-78
2023/03/05 06:33:41;;;;;;;18.92;9.48;;;;;;;;;;5064157;28;20028;-79
2023/03/05 06:36:08;;;;;;;28.05;8.90;;;;;;;;;;5061250;28;20032;-80
2023/03/05 06:38:34;;;;;;;20.88;8.85;;;;;;;;;;5060825;28;20028;-78
2023/03/05 06:41:04;;;;;;;26.20;6.70;;;;;;;;;;5053024;28;20075;-83
2023/03/05 06:43:32;;;;;;;22.70;7.53;;;;;;;;;;5064578;28;20025;-79
2023/03/05 06:46:04;;;;;;;25.45;8.43;;;;;;;;;;5065243;28;20112;-81
2023/03/05 06:48:30;;;;;;;33.20;6.75;;;;;;;;;;5061072;28;20036;-81
2023/03/05 06:50:56;;;;;;;19.48;8.13;;;;;;;;;;5056948;28;20120;-80
2023/03/05 06:53:26;;;;;;;16.85;5.70;;;;;;;;;;5070869;28;20575;-81
2023/03/05 06:55:52;;;;;;;23.42;6.60;;;;;;;;;;5054612;28;20044;-79
2023/03/05 06:58:19;;;;;;;13.02;6.40;;;;;;;;;;5038875;28;20024;-80
2023/03/05 07:00:45;;;;;;;30.20;8.23;;;;;;;;;;5042311;28;20037;-78
2023/03/05 07:03:11;;;;;;;21.80;7.35;;;;;;;;;;5059275;28;20127;-80
2023/03/05 07:05:41;;;;;;;26.02;7.55;;;;;;;;;;5049021;28;20032;-80
2023/03/05 07:08:08;;;;;;;23.33;6.47;;;;;;;;;;5051266;28;20039;-80
2023/03/05 07:10:38;;;;;;;24.77;6.85;;;;;;;;;;5054350;28;20094;-80
2023/03/05 07:13:04;;;;;;;20.60;6.38;;;;;;;;;;5060464;28;20067;-81
2023/03/05 07:15:29;;;;;;;27.83;7.50;;;;;;;;;;5053158;28;20051;-82
2023/03/05 07:17:55;;;;;;;27.60;7.75;;;;;;;;;;5063489;28;20047;-79
2023/03/05 07:20:21;;;;;;;22.50;8.20;;;2.80;99.90;;;;;;5054181;28;20118;-81
2023/03/05 07:22:47;;;;;;;32.45;8.25;;;;;;;;;;5059255;28;20420;-82
2023/03/05 07:25:18;;;;;;;20.08;8.40;;;;;;;;;;5060022;28;20029;-83
2023/03/05 07:27:44;;;;;;;23.13;8.85;;;;;;;;;;5064994;28;20086;-82
2023/03/05 07:30:10;;;;;;;25.65;8.02;;;;;;;;;;5062992;28;20044;-83
2023/03/05 07:32:36;;;;;;;24.70;8.07;;;;;;;;;;5061388;28;20029;-78
2023/03/05 07:35:02;;;;;;;27.35;8.48;;;;;;;;;;5053092;28;20040;-78
2023/03/05 07:37:28;;;;;;;29.30;8.50;;;;;;;;;;5061071;28;20070;-81
2023/03/05 07:39:54;;;;;;;22.70;7.70;;;;;;;;;;5053810;28;20053;-81
2023/03/05 07:42:20;;;;;;;21.17;8.13;;;;;;;;;;5063896;28;20565;-80
2023/03/05 07:44:46;;;;;;;23.02;8.05;;;;;;;;;;5054905;28;20950;-78
2023/03/05 07:47:12;;;;;;;20.95;7.15;;;;;;;;;;5058159;28;20025;-82
2023/03/05 07:49:40;;;;;;;28.50;8.57;;;;;;;;;;5054846;28;20040;-77
2023/03/05 07:52:06;;;;;;;30.40;9.80;;;;;;;;;;5049567;28;20032;-78
2023/03/05 07:54:36;;;;;;;17.38;6.30;;;;;;;;;;5051533;28;20031;-79
2023/03/05 07:57:02;;;;;;;24.17;7.70;;;;;;;;;;5052750;28;20115;-75
2023/03/05 07:59:28;;;;;;;20.83;7.35;;;;;;;;;;5052982;28;20031;-80
2023/03/05 08:01:54;;;;;;;29.17;8.85;;;;;;;;;;5058697;28;20021;-78
2023/03/05 08:04:20;;;;;;;23.63;8.90;;;;;;;;;;5068601;28;20033;-77
2023/03/05 08:06:46;;;;;;;26.50;7.38;;;;;;;;;;5070498;28;20554;-78
2023/03/05 08:09:12;;;;;;;30.42;8.60;;;;;;;;;;5069415;28;20115;-81
2023/03/05 08:11:41;;;;;;;24.40;8.35;;;;;;;;;;5059162;28;20155;-82
2023/03/05 08:14:07;;;;;;;19.90;9.32;;;;;;;;;;5068520;28;20058;-78
2023/03/05 08:16:33;;;;;;;23.58;8.25;;;;;;;;;;5069446;28;20575;-78
2023/03/05 08:18:59;;;;;;;23.20;7.78;;;;;;;;;;5064498;28;20032;-78
2023/03/05 08:21:28;;;;;;;18.65;7.03;;;;;;;;;;5068127;28;20094;-81
2023/03/05 08:23:54;;;;;;;30.23;9.38;;;;;;;;;;5065810;28;20033;-77
2023/03/05 08:26:21;;;;;;;33.35;9.70;;;;;;;;;;5068278;28;20226;-78
2023/03/05 08:28:47;;;;;;;24.17;7.93;;;;;;;;;;5065155;28;20037;-82
2023/03/05 08:31:15;;;;;;;25.95;8.75;;;4.00;99.90;;;;;;5062483;28;20024;-80
2023/03/05 08:33:41;;;;;;;23.38;7.75;;;;;;;;;;5065060;28;20051;-80
2023/03/05 08:36:08;;;;;;;24.42;9.93;;;;;;;;;;5061550;28;20480;-79
2023/03/05 08:38:34;;;;;;;24.48;6.95;;;;;;;;;;5068174;28;20059;-80
2023/03/05 08:41:00;;;;;;;27.45;8.63;;;;;;;;;;5070123;28;20036;-79
2023/03/05 08:43:26;;;;;;;22.73;7.60;;;;;;;;;;5068575;28;20243;-79
2023/03/05 08:45:52;;;;;;;26.90;8.85;;;;;;;;;;5068061;28;20031;-80
2023/03/05 08:48:18;;;;;;;25.83;7.47;;;;;;;;;;5068508;28;20039;-80
2023/03/05 08:50:44;;;;;;;28.27;8.18;;;;;;;;;;5061344;28;20031;-80
2023/03/05 08:53:10;;;;;;;19.98;8.30;;;;;;;;;;5065616;28;20020;-76
2023/03/05 08:55:37;;;;;;;19.45;7.53;;;;;;;;;;5068048;28;20078;-78
2023/03/05 08:58:03;;;;;;;13.52;6.28;;;;;;;;;;5061887;28;20073;-78
2023/03/05 09:00:29;;;;;;;22.55;8.48;;;;;;;;;;5063879;28;20147;-78
2023/03/05 09:02:55;;;;;;;14.02;6.40;;;;;;;;;;5063195;28;20100;-78
2023/03/05 09:05:22;;;;;;;21.17;6.25;;;;;;;;;;5063232;28;20078;-79
2023/03/05 09:07:48;;;;;;;14.73;6.03;;;;;;;;;;5061303;28;20558;-78
2023/03/05 09:10:14;;;;;;;20.00;6.93;;;;;;;;;;5069024;28;20025;-81
2023/03/05 09:12:41;;;;;;;14.63;6.68;;;;;;;;;;5067636;28;20048;-78
2023/03/05 09:15:08;;;;;;;23.17;7.00;;;4.40;99.90;;;;;;5059311;28;22313;-79
2023/03/05 09:17:35;;;;;;;19.58;7.15;;;;;;;;;;5064559;28;20062;-77
2023/03/05 09:20:01;;;;;;;22.35;8.23;;;;;;;;;;5059853;28;20082;-80
2023/03/05 09:22:28;;;;;;;16.52;6.80;;;;;;;;;;5061983;28;20063;-81
2023/03/05 09:24:54;;;;;;;29.63;8.43;;;;;;;;;;5064264;28;20024;-78
2023/03/05 09:27:20;;;;;;;13.20;5.90;;;;;;;;;;5067585;28;22242;-82
2023/03/05 09:29:46;;;;;;;12.90;5.50;;;;;;;;;;5064524;28;20054;-79
2023/03/05 09:32:12;;;;;;;11.68;5.13;;;;;;;;;;5064106;28;20051;-81
2023/03/05 09:34:38;;;;;;;12.52;6.00;;;;;;;;;;5066118;28;20070;-79
2023/03/05 09:37:05;;;;;;;14.60;5.00;;;;;;;;;;5066713;28;20036;-80
2023/03/05 09:39:31;;;;;;;15.65;5.20;;;;;;;;;;5054956;28;20024;-79
2023/03/05 09:42:03;;;;;;;12.38;5.32;;;;;;;;;;5073055;28;20582;-77
2023/03/05 09:44:32;;;;;;;12.57;5.72;;;;;;;;;;5069335;28;20619;-79
2023/03/05 09:47:08;;;;;;;21.73;6.35;;;;;;;;;;5066137;28;20119;-81
2023/03/05 09:49:34;;;;;;;9.13;4.40;;;;;;;;;;5064684;28;20489;-81
2023/03/05 09:52:21;;;;;;;11.32;4.97;;;;;;;;;;5064943;28;20067;-78
2023/03/05 09:54:49;;;;;;;14.50;5.22;;;;;;;;;;5069756;28;20035;-81
2023/03/05 09:57:17;;;;;;;13.98;4.63;;;;;;;;;;5061645;28;20035;-82
2023/03/05 10:00:18;;;;;;;15.15;6.03;;;;;;;;;;5045846;28;20115;-80
2023/03/05 10:02:49;;;;;;;12.98;4.10;;;;;;;;;;4986683;28;20034;-82
2023/03/05 10:05:20;;;;;;;8.65;4.30;;;4.50;99.90;;;;;;5043128;28;20454;-83
2023/03/05 10:07:53;;;;;;;8.23;3.50;;;;;;;;;;5064839;28;20451;-78
2023/03/05 10:10:23;;;;;;;13.77;5.25;;;;;;;;;;5061157;28;20115;-83
2023/03/05 10:12:51;;;;;;;8.70;3.92;;;;;;;;;;5052926;28;20029;-79
2023/03/05 10:15:22;;;;;;;18.23;4.65;;;;;;;;;;5056130;28;20155;-81
2023/03/05 10:18:03;;;;;;;17.48;4.95;;;;;;;;;;5057977;28;20733;-78
2023/03/05 10:20:29;;;;;;;15.98;5.43;;;;;;;;;;5058427;28;20032;-81
2023/03/05 10:22:55;;;;;;;6.68;2.63;;;;;;;;;;5050591;28;20082;-84
2023/03/05 10:25:48;;;;;;;13.98;4.75;;;5.90;99.90;;;;;;5060645;28;20032;-83
2023/03/05 10:28:24;;;;;;;10.40;4.00;;;;;;;;;;5064863;28;20122;-83
2023/03/05 10:30:53;;;;;;;13.98;3.38;;;;;;;;;;5061989;28;20050;-83
2023/03/05 10:33:22;;;;;;;8.93;3.72;;;;;;;;;;5060569;28;20017;-83
2023/03/05 10:36:00;;;;;;;12.73;4.28;;;;;;;;;;5063325;28;20473;-82
2023/03/05 10:38:38;;;;;;;15.48;5.93;;;;;;;;;;5059688;28;20039;-79
2023/03/05 10:41:16;;;;;;;15.27;5.22;;;;;;;;;;5062685;28;20500;-81
2023/03/05 10:43:49;;;;;;;8.70;3.33;;;;;;;;;;5070147;28;20473;-79
2023/03/05 10:46:17;;;;;;;14.25;4.28;;;;;;;;;;5066884;28;20036;-80
2023/03/05 10:49:04;;;;;;;12.65;4.82;;;;;;;;;;5055490;28;20178;-81
2023/03/05 10:51:38;;;;;;;15.20;4.88;;;5.90;99.90;;;;;;5058919;28;20033;-78
2023/03/05 10:54:16;;;;;;;20.08;5.90;;;;;;;;;;5060836;28;20446;-81
2023/03/05 10:56:42;;;;;;;12.85;4.97;;;;;;;;;;5058878;28;20032;-79
2023/03/05 10:59:08;;;;;;;10.05;4.40;;;;;;;;;;5058197;28;20020;-80
2023/03/05 11:01:35;;;;;;;14.07;4.63;;;;;;;;;;5056112;28;20035;-83
2023/03/05 11:04:05;;;;;;;10.88;4.07;;;;;;;;;;5047107;28;20025;-82
2023/03/05 11:06:42;;;;;;;12.63;3.95;;;;;;;;;;5055395;28;20452;-80
2023/03/05 11:09:20;;;;;;;12.05;3.80;;;;;;;;;;5053059;28;20396;-82
2023/03/05 11:12:05;;;;;;;7.22;3.90;;;;;;;;;;5057991;28;20035;-79
2023/03/05 11:14:32;;;;;;;10.77;3.92;;;;;;;;;;5059252;28;20032;-81
2023/03/05 11:16:58;;;;;;;14.65;5.32;;;;;;;;;;5053902;28;20037;-81
2023/03/05 11:19:31;;;;;;;15.30;4.57;;;;;;;;;;5056694;28;20048;-83
2023/03/05 11:22:15;;;;;;;10.15;3.78;;;;;;;;;;5049861;28;20750;-81
2023/03/05 11:24:41;;;;;;;8.30;3.45;;;;;;;;;;5063103;28;20040;-80
2023/03/05 11:27:25;;;;;;;12.05;4.22;;;;;;;;;;5059410;28;20028;-82
2023/03/05 11:29:51;;;;;;;12.90;5.32;;;;;;;;;;5061074;28;20039;-82
2023/03/05 11:32:27;;;;;;;5.78;2.75;;;;;;;;;;5065006;28;20498;-83
2023/03/05 11:34:54;;;;;;;8.65;3.83;;;;;;;;;;5058471;28;20039;-78
2023/03/05 11:37:23;;;;;;;7.13;2.80;;;;;;;;;;5068852;28;20020;-77
2023/03/05 11:40:04;;;;;;;10.52;3.38;;;;;;;;;;5067742;28;20025;-80
2023/03/05 11:42:30;;;;;;;10.90;3.90;;;;;;;;;;5066483;28;20119;-81
2023/03/05 11:44:57;;;;;;;11.38;3.60;;;;;;;;;;5064717;28;20536;-78
2023/03/05 11:47:23;;;;;;;10.05;4.05;;;;;;;;;;5059420;28;20067;-79
2023/03/05 11:49:53;;;;;;;7.90;2.78;;;6.30;99.90;;;;;;5067959;28;20048;-81
2023/03/05 11:52:24;;;;;;;11.30;3.78;;;;;;;;;;5065866;28;20048;-81
2023/03/05 11:55:05;;;;;;;10.70;3.58;;;;;;;;;;5062819;28;20074;-77
2023/03/05 11:57:41;;;;;;;9.68;3.97;;;6.20;99.90;;;;;;5065406;28;20485;-78
2023/03/05 12:00:13;;;;;;;5.53;2.45;;;;;;;;;;5071603;28;20029;-78
2023/03/05 12:02:38;;;;;;;9.05;3.63;;;;;;;;;;5070816;28;20408;-81
2023/03/05 12:05:06;;;;;;;7.75;3.92;;;6.60;99.90;;;;;;5058520;28;20039;-80
2023/03/05 12:07:37;;;;;;;9.77;3.65;;;;;;;;;;5065594;28;20036;-80
2023/03/05 12:10:03;;;;;;;10.73;3.05;;;;;;;;;;5064131;28;20115;-82
2023/03/05 12:13:08;;;;;;;6.00;2.75;;;;;;;;;;5063067;28;20063;-78
2023/03/05 12:15:41;;;;;;;7.68;2.55;;;;;;;;;;4981994;28;20136;-82
2023/03/05 12:18:17;;;;;;;14.68;3.67;;;;;;;;;;4968210;28;20126;-81
2023/03/05 12:20:43;;;;;;;9.13;3.50;;;;;;;;;;5030802;28;20098;-82
2023/03/05 12:23:17;;;;;;;13.13;3.50;;;;;;;;;;5068551;28;20497;-80
2023/03/05 12:25:47;;;;;;;8.00;3.05;;;;;;;;;;5060876;28;20036;-82
2023/03/05 12:28:14;;;;;;;6.50;2.58;;;;;;;;;;5068776;28;20036;-80
2023/03/05 12:30:40;;;;;;;8.07;3.83;;;;;;;;;;5066095;28;20028;-80
2023/03/05 12:33:26;;;;;;;10.02;4.55;;;;;;;;;;5064783;28;20161;-81
2023/03/05 12:35:52;;;;;;;7.88;3.67;;;;;;;;;;5062747;28;20052;-78
2023/03/05 12:38:28;;;;;;;9.18;4.70;;;;;;;;;;5063124;28;20028;-80
2023/03/05 12:41:14;;;;;;;11.85;4.50;;;;;;;;;;5063987;28;20096;-82
2023/03/05 12:43:41;;;;;;;9.10;3.50;;;;;;;;;;5067151;28;20039;-81
2023/03/05 12:46:31;;;;;;;22.10;7.10;;;;;;;;;;5059726;28;20365;-80
2023/03/05 12:48:57;;;;;;;8.88;4.75;;;;;;;;;;5060948;28;20053;-80
2023/03/05 12:51:31;;;;;;;14.18;6.53;;;;;;;;;;5066895;28;20029;-81
2023/03/05 12:54:17;;;;;;;10.93;4.10;;;;;;;;;;5062698;28;20036;-82
2023/03/05 12:56:45;;;;;;;18.00;4.38;;;;;;;;;;5059954;28;20055;-82
2023/03/05 12:59:11;;;;;;;13.32;4.65;;;;;;;;;;5061115;28;20067;-81
2023/03/05 13:02:03;;;;;;;12.98;5.25;;;;;;;;;;5062589;28;20148;-82
2023/03/05 13:04:31;;;;;;;12.32;3.63;;;;;;;;;;5060951;28;20041;-82
2023/03/05 13:06:59;;;;;;;17.27;5.85;;;6.00;99.90;;;;;;5069931;28;20504;-81
2023/03/05 13:09:30;;;;;;;10.38;4.28;;;6.00;99.90;;;;;;5059414;28;20041;-79
2023/03/05 13:11:56;;;;;;;10.63;3.95;;;;;;;;;;5052677;28;20020;-81
2023/03/05 13:14:28;;;;;;;9.32;4.20;;;;;;;;;;5056510;28;20032;-81
2023/03/05 13:16:54;;;;;;;12.63;4.90;;;;;;;;;;5055994;28;20594;-81
2023/03/05 13:19:20;;;;;;;18.60;5.75;;;;;;;;;;5062207;28;20029;-82
2023/03/05 13:21:56;;;;;;;22.00;6.10;;;;;;;;;;5057737;28;20034;-81
2023/03/05 13:24:22;;;;;;;8.25;3.13;;;;;;;;;;5063972;28;20040;-78
2023/03/05 13:26:48;;;;;;;13.10;4.35;;;;;;;;;;5059048;28;20037;-82
2023/03/05 13:29:16;;;;;;;12.07;4.75;;;;;;;;;;5057038;28;20046;-81
2023/03/05 13:31:50;;;;;;;11.23;5.45;;;;;;;;;;5064196;28;22735;-81
2023/03/05 13:34:36;;;;;;;13.52;4.53;;;6.30;99.90;;;;;;5063563;28;20035;-80
2023/03/05 13:37:14;;;;;;;13.60;4.85;;;;;;;;;;5063345;28;20031;-81
2023/03/05 13:39:47;;;;;;;11.50;4.65;;;;;;;;;;5068777;28;20031;-81
2023/03/05 13:42:24;;;;;;;27.35;5.53;;;;;;;;;;5052972;28;20071;-80
2023/03/05 13:44:54;;;;;;;12.73;4.70;;;;;;;;;;5064921;28;20103;-80
2023/03/05 13:47:21;;;;;;;14.50;4.97;;;;;;;;;;5067032;28;20042;-80
2023/03/05 13:49:47;;;;;;;10.45;3.83;;;;;;;;;;5068125;28;20040;-80
2023/03/05 13:52:30;;;;;;;9.65;4.55;;;;;;;;;;5058530;28;20547;-81
2023/03/05 13:54:56;;;;;;;11.38;4.82;;;;;;;;;;5069207;28;20051;-81
2023/03/05 13:57:37;;;;;;;15.13;5.10;;;;;;;;;;5066878;28;20035;-81
2023/03/05 14:00:07;;;;;;;10.38;4.70;;;;;;;;;;5067841;28;20192;-82
2023/03/05 14:02:33;;;;;;;20.50;5.97;;;;;;;;;;5055837;28;20021;-81
2023/03/05 14:04:59;;;;;;;10.88;5.05;;;;;;;;;;5060430;28;20027;-81
2023/03/05 14:07:29;;;;;;;13.50;6.53;;;;;;;;;;5063662;28;20119;-81
2023/03/05 14:09:55;;;;;;;15.25;5.07;;;;;;;;;;5058854;28;20029;-81
2023/03/05 14:12:21;;;;;;;10.25;3.97;;;;;;;;;;5058773;28;20036;-81
2023/03/05 14:14:48;;;;;;;12.65;4.53;;;;;;;;;;5058703;28;20028;-81
2023/03/05 14:17:35;;;;;;;18.63;7.63;;;;;;;;;;5060137;28;20479;-79
2023/03/05 14:20:10;;;;;;;22.80;6.55;;;;;;;;;;5054813;28;20047;-81
2023/03/05 14:22:37;;;;;;;14.60;5.10;;;;;;;;;;5059092;28;20070;-83
2023/03/05 14:25:04;;;;;;;12.35;4.53;;;;;;;;;;5050149;28;20023;-79
2023/03/05 14:27:33;;;;;;;7.75;4.60;;;;;;;;;;5069118;28;20042;-82
2023/03/05 14:29:59;;;;;;;10.02;4.85;;;;;;;;;;5059294;28;20048;-79